createdAt,value
2023-02-08T00:00:36.000Z,1.2
2023-02-08T00:01:52.000Z,1.2
2023-02-08T00:03:08.000Z,1.2
2023-02-08T00:04:24.000Z,1.1
2023-02-08T00:05:39.000Z,1.1
2023-02-08T00:06:55.000Z,1.1
2023-02-08T00:08:11.000Z,1.1
2023-02-08T00:09:27.000Z,1
2023-02-08T00:10:44.000Z,1
2023-02-08T00:12:00.000Z,0.9
2023-02-08T00:13:16.000Z,0.9
2023-02-08T00:14:32.000Z,0.9
2023-02-08T00:15:48.000Z,1
2023-02-08T00:17:05.000Z,0.9
2023-02-08T00:18:21.000Z,0.9
2023-02-08T00:19:37.000Z,0.9
2023-02-08T00:20:53.000Z,0.9
2023-02-08T00:22:08.000Z,0.9
2023-02-08T00:23:25.000Z,0.9
2023-02-08T00:24:41.000Z,0.9
2023-02-08T00:25:57.000Z,0.8
2023-02-08T00:27:13.000Z,0.8
2023-02-08T00:28:29.000Z,0.8
2023-02-08T00:29:45.000Z,0.8
2023-02-08T00:31:01.000Z,0.9
2023-02-08T00:32:16.000Z,0.8
2023-02-08T00:33:31.000Z,0.9
2023-02-08T00:34:46.000Z,1
2023-02-08T00:36:03.000Z,1
2023-02-08T00:37:19.000Z,1
2023-02-08T00:38:35.000Z,1
2023-02-08T00:39:51.000Z,1
2023-02-08T00:41:07.000Z,1
2023-02-08T00:42:23.000Z,1
2023-02-08T00:43:40.000Z,1
2023-02-08T00:44:56.000Z,1
2023-02-08T00:46:12.000Z,1
2023-02-08T00:47:28.000Z,1
2023-02-08T00:48:44.000Z,1
2023-02-08T00:50:01.000Z,1
2023-02-08T00:51:16.000Z,1
2023-02-08T00:52:32.000Z,0.9
2023-02-08T00:53:48.000Z,1
2023-02-08T00:55:04.000Z,0.9
2023-02-08T00:56:21.000Z,0.8
2023-02-08T00:57:37.000Z,0.6
2023-02-08T00:58:53.000Z,0.6
2023-02-08T01:00:08.000Z,0.6
2023-02-08T01:01:23.000Z,0.5
2023-02-08T01:02:40.000Z,0.6
2023-02-08T01:03:56.000Z,0.5
2023-02-08T01:05:12.000Z,0.5
2023-02-08T01:06:28.000Z,0.4
2023-02-08T01:07:44.000Z,0.5
2023-02-08T01:09:01.000Z,0.5
2023-02-08T01:10:17.000Z,0.4
2023-02-08T01:11:33.000Z,0.4
2023-02-08T01:12:49.000Z,0.4
2023-02-08T01:14:05.000Z,0.3
2023-02-08T01:15:21.000Z,0.4
2023-02-08T01:16:38.000Z,0.3
2023-02-08T01:17:53.000Z,0.5
2023-02-08T01:19:09.000Z,0.4
2023-02-08T01:20:25.000Z,0.5
2023-02-08T01:21:41.000Z,0.5
2023-02-08T01:22:58.000Z,0.4
2023-02-08T01:24:14.000Z,0.3
2023-02-08T01:25:30.000Z,0.3
2023-02-08T01:26:45.000Z,0.3
2023-02-08T01:28:00.000Z,0.4
2023-02-08T01:29:16.000Z,0.4
2023-02-08T01:30:31.000Z,0.4
2023-02-08T01:31:47.000Z,0.3
2023-02-08T01:33:03.000Z,0.3
2023-02-08T01:34:19.000Z,0.3
2023-02-08T01:35:36.000Z,0.4
2023-02-08T01:36:52.000Z,0.3
2023-02-08T01:38:08.000Z,0.3
2023-02-08T01:39:24.000Z,0.3
2023-02-08T01:40:40.000Z,0.4
2023-02-08T01:41:57.000Z,0.4
2023-02-08T01:43:13.000Z,0.4
2023-02-08T01:44:29.000Z,0.5
2023-02-08T01:45:45.000Z,0.6
2023-02-08T01:47:00.000Z,0.6
2023-02-08T01:48:17.000Z,0.6
2023-02-08T01:49:33.000Z,0.5
2023-02-08T01:50:49.000Z,0.5
2023-02-08T01:52:05.000Z,0.4
2023-02-08T01:53:21.000Z,0.5
2023-02-08T01:54:38.000Z,0.6
2023-02-08T01:55:53.000Z,0.6
2023-02-08T01:57:08.000Z,0.5
2023-02-08T01:58:23.000Z,0.5
2023-02-08T01:59:38.000Z,0.5
2023-02-08T02:00:54.000Z,0.5
2023-02-08T02:02:09.000Z,0.4
2023-02-08T02:03:25.000Z,0.4
2023-02-08T02:04:41.000Z,0.3
2023-02-08T02:05:57.000Z,0.3
2023-02-08T02:07:14.000Z,0.3
2023-02-08T02:08:30.000Z,0.3
2023-02-08T02:09:46.000Z,0.2
2023-02-08T02:11:02.000Z,0.2
2023-02-08T02:12:18.000Z,0.1
2023-02-08T02:13:35.000Z,0.1
2023-02-08T02:14:51.000Z,0.2
2023-02-08T02:16:07.000Z,0.1
2023-02-08T02:17:23.000Z,0.2
2023-02-08T02:18:38.000Z,0.2
2023-02-08T02:19:55.000Z,0.2
2023-02-08T02:21:11.000Z,0.2
2023-02-08T02:22:27.000Z,0.2
2023-02-08T02:23:43.000Z,0.3
2023-02-08T02:24:59.000Z,0.3
2023-02-08T02:26:15.000Z,0.3
2023-02-08T02:27:31.000Z,0.3
2023-02-08T02:28:46.000Z,0.2
2023-02-08T02:30:01.000Z,0.3
2023-02-08T02:31:16.000Z,0.3
2023-02-08T02:32:33.000Z,0.3
2023-02-08T02:33:49.000Z,0.3
2023-02-08T02:35:05.000Z,0.2
2023-02-08T02:36:21.000Z,0.2
2023-02-08T02:37:37.000Z,0.4
2023-02-08T02:38:53.000Z,0.4
2023-02-08T02:40:10.000Z,0.4
2023-02-08T02:41:26.000Z,0.4
2023-02-08T02:42:41.000Z,0.5
2023-02-08T02:43:57.000Z,0.4
2023-02-08T02:45:13.000Z,0.4
2023-02-08T02:46:30.000Z,0.5
2023-02-08T02:47:46.000Z,0.3
2023-02-08T02:49:02.000Z,0.4
2023-02-08T02:50:18.000Z,0.4
2023-02-08T02:51:34.000Z,0.5
2023-02-08T02:52:51.000Z,0.5
2023-02-08T02:54:07.000Z,0.5
2023-02-08T02:55:23.000Z,0.4
2023-02-08T02:56:39.000Z,0.5
2023-02-08T02:57:54.000Z,0.5
2023-02-08T02:59:10.000Z,0.5
2023-02-08T03:00:25.000Z,0.6
2023-02-08T03:01:40.000Z,0.6
2023-02-08T03:02:56.000Z,0.7
2023-02-08T03:04:12.000Z,0.7
2023-02-08T03:05:29.000Z,0.7
2023-02-08T03:06:45.000Z,0.7
2023-02-08T03:08:01.000Z,0.6
2023-02-08T03:09:17.000Z,0.6
2023-02-08T03:10:33.000Z,0.5
2023-02-08T03:11:50.000Z,0.4
2023-02-08T03:13:06.000Z,0.3
2023-02-08T03:14:22.000Z,0.2
2023-02-08T03:15:38.000Z,0.1
2023-02-08T03:16:54.000Z,0.1
2023-02-08T03:18:10.000Z,0.1
2023-02-08T03:19:26.000Z,0.1
2023-02-08T03:20:42.000Z,0.1
2023-02-08T03:21:58.000Z,0.2
2023-02-08T03:23:14.000Z,0.1
2023-02-08T03:24:30.000Z,0.2
2023-02-08T03:25:47.000Z,0.1
2023-02-08T03:27:02.000Z,0.2
2023-02-08T03:28:17.000Z,0.2
2023-02-08T03:29:33.000Z,0.3
2023-02-08T03:30:48.000Z,0.4
2023-02-08T03:32:04.000Z,0.4
2023-02-08T03:33:20.000Z,0.4
2023-02-08T03:34:36.000Z,0.4
2023-02-08T03:35:52.000Z,0.4
2023-02-08T03:37:08.000Z,0.3
2023-02-08T03:38:25.000Z,0.3
2023-02-08T03:39:41.000Z,0.3
2023-02-08T03:40:57.000Z,0.3
2023-02-08T03:42:13.000Z,0.3
2023-02-08T03:43:29.000Z,0.3
2023-02-08T03:44:46.000Z,0.2
2023-02-08T03:46:02.000Z,0.2
2023-02-08T03:47:18.000Z,0.1
2023-02-08T03:48:33.000Z,0.1
2023-02-08T03:49:49.000Z,0.1
2023-02-08T03:51:06.000Z,0
2023-02-08T03:52:22.000Z,0.2
2023-02-08T03:53:38.000Z,0.3
2023-02-08T03:54:54.000Z,0.2
2023-02-08T03:56:10.000Z,0.3
2023-02-08T03:57:26.000Z,0.3
2023-02-08T03:58:41.000Z,0.3
2023-02-08T03:59:56.000Z,0.3
2023-02-08T04:01:11.000Z,0.4
2023-02-08T04:02:27.000Z,0.4
2023-02-08T04:03:44.000Z,0.3
2023-02-08T04:05:00.000Z,0.3
2023-02-08T04:06:16.000Z,0.2
2023-02-08T04:07:32.000Z,0.2
2023-02-08T04:08:48.000Z,0.2
2023-02-08T04:10:05.000Z,0.2
2023-02-08T04:11:21.000Z,0.2
2023-02-08T04:12:37.000Z,0.2
2023-02-08T04:13:53.000Z,0.2
2023-02-08T04:15:09.000Z,0.3
2023-02-08T04:16:25.000Z,0.2
2023-02-08T04:17:41.000Z,0.2
2023-02-08T04:18:57.000Z,0.2
2023-02-08T04:20:13.000Z,0.2
2023-02-08T04:21:29.000Z,0.2
2023-02-08T04:22:45.000Z,0.1
2023-02-08T04:24:02.000Z,0.1
2023-02-08T04:25:18.000Z,0.1
2023-02-08T04:26:33.000Z,0
2023-02-08T04:27:48.000Z,0
2023-02-08T04:29:04.000Z,0.1
2023-02-08T04:30:21.000Z,0.1
2023-02-08T04:31:37.000Z,0
2023-02-08T04:32:53.000Z,0.1
2023-02-08T04:34:09.000Z,0.1
2023-02-08T04:35:25.000Z,0.1
2023-02-08T04:36:42.000Z,0.1
2023-02-08T04:37:58.000Z,0.1
2023-02-08T04:39:14.000Z,0.2
2023-02-08T04:40:30.000Z,0.2
2023-02-08T04:41:46.000Z,0.2
2023-02-08T04:43:03.000Z,0.2
2023-02-08T04:44:19.000Z,0.3
2023-02-08T04:45:34.000Z,0.3
2023-02-08T04:46:50.000Z,0.2
2023-02-08T04:48:06.000Z,0.3
2023-02-08T04:49:23.000Z,0.4
2023-02-08T04:50:39.000Z,0.4
2023-02-08T04:51:55.000Z,0.4
2023-02-08T04:53:10.000Z,0.4
2023-02-08T04:54:25.000Z,0.4
2023-02-08T04:55:41.000Z,0.3
2023-02-08T04:56:56.000Z,0.3
2023-02-08T04:58:12.000Z,0.3
2023-02-08T04:59:28.000Z,0.3
2023-02-08T05:00:44.000Z,0.3
2023-02-08T05:02:01.000Z,0.2
2023-02-08T05:03:17.000Z,0.2
2023-02-08T05:04:33.000Z,0
2023-02-08T05:05:49.000Z,0
2023-02-08T05:07:05.000Z,0
2023-02-08T05:08:21.000Z,0
2023-02-08T05:09:38.000Z,-0.1
2023-02-08T05:10:54.000Z,-0.1
2023-02-08T05:12:10.000Z,-0.2
2023-02-08T05:13:25.000Z,-0.2
2023-02-08T05:14:41.000Z,-0.2
2023-02-08T05:15:58.000Z,-0.2
2023-02-08T05:17:14.000Z,-0.2
2023-02-08T05:18:30.000Z,-0.2
2023-02-08T05:19:46.000Z,-0.2
2023-02-08T05:21:02.000Z,-0.2
2023-02-08T05:22:19.000Z,-0.2
2023-02-08T05:23:34.000Z,-0.2
2023-02-08T05:24:49.000Z,-0.2
2023-02-08T05:26:05.000Z,-0.2
2023-02-08T05:27:20.000Z,-0.2
2023-02-08T05:28:36.000Z,-0.2
2023-02-08T05:29:52.000Z,-0.2
2023-02-08T05:31:08.000Z,-0.2
2023-02-08T05:32:24.000Z,-0.3
2023-02-08T05:33:40.000Z,-0.3
2023-02-08T05:34:57.000Z,-0.3
2023-02-08T05:36:13.000Z,-0.3
2023-02-08T05:37:29.000Z,-0.4
2023-02-08T05:38:45.000Z,-0.3
2023-02-08T05:40:01.000Z,-0.3
2023-02-08T05:41:18.000Z,-0.3
2023-02-08T05:42:34.000Z,-0.3
2023-02-08T05:43:50.000Z,-0.3
2023-02-08T05:45:05.000Z,-0.3
2023-02-08T05:46:21.000Z,-0.3
2023-02-08T05:47:38.000Z,-0.2
2023-02-08T05:48:54.000Z,-0.2
2023-02-08T05:50:10.000Z,-0.2
2023-02-08T05:51:26.000Z,-0.3
2023-02-08T05:52:42.000Z,-0.3
2023-02-08T05:53:58.000Z,-0.3
2023-02-08T05:55:13.000Z,-0.3
2023-02-08T05:56:29.000Z,-0.3
2023-02-08T05:57:44.000Z,-0.3
2023-02-08T05:58:59.000Z,-0.4
2023-02-08T06:00:16.000Z,-0.3
2023-02-08T06:01:32.000Z,-0.3
2023-02-08T06:02:48.000Z,-0.2
2023-02-08T06:04:04.000Z,-0.2
2023-02-08T06:05:20.000Z,-0.3
2023-02-08T06:06:37.000Z,-0.3
2023-02-08T06:07:53.000Z,-0.3
2023-02-08T06:09:09.000Z,-0.3
2023-02-08T06:10:25.000Z,-0.3
2023-02-08T06:11:41.000Z,-0.2
2023-02-08T06:12:57.000Z,-0.3
2023-02-08T06:14:14.093Z,-0.3
2023-02-08T06:15:29.000Z,-0.3
2023-02-08T06:16:45.000Z,-0.3
2023-02-08T06:18:01.000Z,-0.3
2023-02-08T06:19:17.000Z,-0.3
2023-02-08T06:20:34.000Z,-0.3
2023-02-08T06:21:50.000Z,-0.4
2023-02-08T06:23:06.000Z,-0.4
2023-02-08T06:24:21.000Z,-0.5
2023-02-08T06:25:36.000Z,-0.5
2023-02-08T06:26:53.000Z,-0.5
2023-02-08T06:28:09.000Z,-0.6
2023-02-08T06:29:25.000Z,-0.7
2023-02-08T06:30:41.000Z,-0.6
2023-02-08T06:31:57.000Z,-0.5
2023-02-08T06:33:14.000Z,-0.6
2023-02-08T06:34:30.000Z,-0.6
2023-02-08T06:35:46.000Z,-0.6
2023-02-08T06:37:02.000Z,-0.7
2023-02-08T06:38:18.000Z,-0.7
2023-02-08T06:39:35.000Z,-0.8
2023-02-08T06:40:51.000Z,-0.7
2023-02-08T06:42:06.000Z,-0.8
2023-02-08T06:43:22.000Z,-0.7
2023-02-08T06:44:38.000Z,-0.8
2023-02-08T06:45:55.000Z,-0.7
2023-02-08T06:47:11.000Z,-0.7
2023-02-08T06:48:27.000Z,-0.8
2023-02-08T06:49:43.000Z,-0.8
2023-02-08T06:50:58.000Z,-0.8
2023-02-08T06:52:14.000Z,-0.8
2023-02-08T06:53:29.000Z,-0.7
2023-02-08T06:54:44.000Z,-0.7
2023-02-08T06:56:00.000Z,-0.7
2023-02-08T06:57:15.000Z,-0.7
2023-02-08T06:58:32.000Z,-0.7
2023-02-08T06:59:48.000Z,-0.7
2023-02-08T07:01:04.000Z,-0.6
2023-02-08T07:02:20.000Z,-0.6
2023-02-08T07:03:36.000Z,-0.6
2023-02-08T07:04:52.000Z,-0.6
2023-02-08T07:06:09.000Z,-0.7
2023-02-08T07:07:25.000Z,-0.7
2023-02-08T07:08:41.000Z,-0.6
2023-02-08T07:09:57.000Z,-0.6
2023-02-08T07:11:13.000Z,-0.6
2023-02-08T07:12:30.000Z,-0.7
2023-02-08T07:13:45.000Z,-0.7
2023-02-08T07:15:01.000Z,-0.6
2023-02-08T07:16:17.000Z,-0.6
2023-02-08T07:17:33.000Z,-0.6
2023-02-08T07:18:50.000Z,-0.5
2023-02-08T07:20:05.000Z,-0.5
2023-02-08T07:21:20.000Z,-0.6
2023-02-08T07:22:35.000Z,-0.6
2023-02-08T07:23:50.000Z,-0.6
2023-02-08T07:25:07.000Z,-0.5
2023-02-08T07:26:23.000Z,-0.5
2023-02-08T07:27:39.000Z,-0.6
2023-02-08T07:28:55.000Z,-0.5
2023-02-08T07:30:11.000Z,-0.3
2023-02-08T07:31:28.000Z,-0.1
2023-02-08T07:32:44.000Z,0.2
2023-02-08T07:34:00.000Z,0.5
2023-02-08T07:35:16.000Z,0.7
2023-02-08T07:36:32.000Z,0.9
2023-02-08T07:37:49.000Z,1
2023-02-08T07:39:05.000Z,1.1
2023-02-08T07:40:20.000Z,1.2
2023-02-08T07:41:36.000Z,1.1
2023-02-08T07:42:52.000Z,1.1
2023-02-08T07:44:08.000Z,1
2023-02-08T07:45:25.000Z,0.9
2023-02-08T07:46:41.000Z,0.8
2023-02-08T07:47:57.000Z,0.7
2023-02-08T07:49:12.000Z,0.6
2023-02-08T07:50:27.000Z,0.6
2023-02-08T07:51:44.000Z,0.6
2023-02-08T07:53:00.000Z,0.6
2023-02-08T07:54:16.000Z,0.6
2023-02-08T07:55:32.000Z,0.6
2023-02-08T07:56:48.000Z,0.6
2023-02-08T07:58:05.000Z,0.7
2023-02-08T07:59:21.000Z,0.6
2023-02-08T08:00:37.000Z,0.7
2023-02-08T08:01:53.000Z,0.8
2023-02-08T08:03:09.000Z,0.8
2023-02-08T08:04:26.000Z,0.9
2023-02-08T08:05:42.000Z,0.7
2023-02-08T08:06:57.000Z,0.7
2023-02-08T08:08:13.000Z,0.9
2023-02-08T08:09:29.000Z,1
2023-02-08T08:10:46.000Z,1
2023-02-08T08:12:02.000Z,0.9
2023-02-08T08:13:18.000Z,0.9
2023-02-08T08:14:34.000Z,1
2023-02-08T08:15:49.000Z,1
2023-02-08T08:17:05.000Z,1.1
2023-02-08T08:18:20.000Z,1.1
2023-02-08T08:19:35.000Z,1.2
2023-02-08T08:20:50.000Z,1.1
2023-02-08T08:22:05.000Z,1.2
2023-02-08T08:23:22.000Z,1.1
2023-02-08T08:24:38.000Z,1.1
2023-02-08T08:25:54.000Z,1.2
2023-02-08T08:27:10.000Z,1.1
2023-02-08T08:28:26.000Z,1.2
2023-02-08T08:29:42.000Z,1.3
2023-02-08T08:30:59.000Z,1.4
2023-02-08T08:32:15.000Z,1.5
2023-02-08T08:33:31.000Z,1.6
2023-02-08T08:34:47.000Z,1.6
2023-02-08T08:36:03.000Z,1.6
2023-02-08T08:37:20.000Z,1.7
2023-02-08T08:38:35.000Z,1.6
2023-02-08T08:39:51.000Z,1.7
2023-02-08T08:41:07.000Z,1.8
2023-02-08T08:42:23.000Z,2
2023-02-08T08:43:40.000Z,2.1
2023-02-08T08:44:56.000Z,2.2
2023-02-08T08:46:12.000Z,2.2
2023-02-08T08:47:28.000Z,2.3
2023-02-08T08:48:43.000Z,2.4
2023-02-08T08:49:59.000Z,2.5
2023-02-08T08:51:15.000Z,2.5
2023-02-08T08:52:30.000Z,2.5
2023-02-08T08:53:45.000Z,2.6
2023-02-08T08:55:01.000Z,2.7
2023-02-08T08:56:18.000Z,2.8
2023-02-08T08:57:34.000Z,2.8
2023-02-08T08:58:50.000Z,2.9
2023-02-08T09:00:06.000Z,2.8
2023-02-08T09:01:22.000Z,3
2023-02-08T09:02:39.000Z,3.1
2023-02-08T09:03:55.000Z,3
2023-02-08T09:05:11.000Z,3.1
2023-02-08T09:06:27.000Z,3.2
2023-02-08T09:07:43.000Z,3.3
2023-02-08T09:08:59.000Z,3.4
2023-02-08T09:10:15.000Z,3.6
2023-02-08T09:11:31.000Z,3.9
2023-02-08T09:12:47.000Z,4.1
2023-02-08T09:14:03.000Z,4.3
2023-02-08T09:15:19.000Z,4.5
2023-02-08T09:16:36.000Z,4.6
2023-02-08T09:17:52.000Z,4.8
2023-02-08T09:19:07.000Z,4.7
2023-02-08T09:20:22.000Z,4.5
2023-02-08T09:21:38.000Z,4.2
2023-02-08T09:22:55.000Z,4.3
2023-02-08T09:24:10.000Z,4.4
2023-02-08T09:25:25.000Z,4.7
2023-02-08T09:26:41.000Z,5
2023-02-08T09:27:57.000Z,5.1
2023-02-08T09:29:14.000Z,5.2
2023-02-08T09:30:30.000Z,5.5
2023-02-08T09:31:46.000Z,5.3
2023-02-08T09:33:02.000Z,5.2
2023-02-08T09:34:18.000Z,5.2
2023-02-08T09:35:35.000Z,5.6
2023-02-08T09:36:51.000Z,5.5
2023-02-08T09:38:07.000Z,5.4
2023-02-08T09:39:23.000Z,5.4
2023-02-08T09:40:39.000Z,5.6
2023-02-08T09:41:55.000Z,6
2023-02-08T09:43:11.000Z,6.3
2023-02-08T09:44:27.000Z,6.4
2023-02-08T09:45:43.000Z,6.6
2023-02-08T09:46:59.000Z,6.7
2023-02-08T09:48:15.000Z,6.8
2023-02-08T09:49:32.000Z,6.8
2023-02-08T09:50:47.000Z,7.1
2023-02-08T09:52:02.000Z,7.2
2023-02-08T09:53:18.000Z,7.3
2023-02-08T09:54:34.000Z,7.5
2023-02-08T09:55:51.000Z,7.6
2023-02-08T09:57:07.000Z,7.7
2023-02-08T09:58:23.000Z,7.8
2023-02-08T09:59:39.000Z,7.9
2023-02-08T10:00:55.000Z,8.1
2023-02-08T10:02:12.000Z,8.2
2023-02-08T10:03:28.000Z,8.4
2023-02-08T10:04:44.000Z,8.7
2023-02-08T10:06:00.000Z,9.2
2023-02-08T10:07:16.000Z,9.6
2023-02-08T10:08:32.000Z,9.8
2023-02-08T10:09:48.000Z,9.9
2023-02-08T10:11:04.000Z,9.8
2023-02-08T10:12:20.000Z,9.8
2023-02-08T10:13:36.000Z,9.9
2023-02-08T10:14:52.000Z,9.9
2023-02-08T10:16:09.000Z,9.9
2023-02-08T10:17:24.000Z,10.3
2023-02-08T10:18:39.000Z,10.6
2023-02-08T10:19:54.000Z,10.8
2023-02-08T10:21:10.000Z,10.9
2023-02-08T10:22:26.000Z,11.2
2023-02-08T10:23:41.000Z,11.3
2023-02-08T10:24:56.000Z,11.4
2023-02-08T10:26:12.000Z,11.4
2023-02-08T10:27:28.909Z,11.4
2023-02-08T10:28:45.000Z,11.7
2023-02-08T10:30:01.000Z,11.9
2023-02-08T10:31:17.000Z,12.2
2023-02-08T10:32:33.000Z,12.4
2023-02-08T10:33:49.000Z,12.6
2023-02-08T10:35:06.000Z,12.8
2023-02-08T10:36:22.000Z,13
2023-02-08T10:37:38.000Z,13.3
2023-02-08T10:38:54.000Z,12.8
2023-02-08T10:40:10.000Z,11.7
2023-02-08T10:41:26.000Z,11.1
2023-02-08T10:42:42.000Z,10.8
2023-02-08T10:43:58.000Z,11.5
2023-02-08T10:45:14.000Z,12.3
2023-02-08T10:46:30.000Z,12.6
2023-02-08T10:47:47.000Z,12.8
2023-02-08T10:49:03.000Z,13.1
2023-02-08T10:50:18.000Z,13.5
2023-02-08T10:51:33.000Z,13.7
2023-02-08T10:52:49.000Z,13.5
2023-02-08T10:54:05.000Z,13.2
2023-02-08T10:55:20.000Z,12.9
2023-02-08T10:56:36.000Z,13.2
2023-02-08T10:57:52.000Z,13.5
2023-02-08T10:59:08.000Z,13.8
2023-02-08T11:00:24.000Z,14.2
2023-02-08T11:01:41.000Z,14.4
2023-02-08T11:02:57.000Z,14.1
2023-02-08T11:04:13.000Z,14.2
2023-02-08T11:05:29.000Z,13.8
2023-02-08T11:06:45.000Z,14.2
2023-02-08T11:08:02.000Z,14.5
2023-02-08T11:09:18.000Z,14.7
2023-02-08T11:10:34.000Z,14.4
2023-02-08T11:11:49.000Z,14.3
2023-02-08T11:13:05.000Z,14.4
2023-02-08T11:14:22.000Z,14.4
2023-02-08T11:15:38.000Z,14.4
2023-02-08T11:16:54.000Z,14.7
2023-02-08T11:18:10.000Z,15.1
2023-02-08T11:19:26.000Z,15.5
2023-02-08T11:20:42.000Z,15.8
2023-02-08T11:21:57.000Z,15.9
2023-02-08T11:23:12.000Z,16.1
2023-02-08T11:24:27.000Z,16.3
2023-02-08T11:25:43.000Z,16.5
2023-02-08T11:27:00.000Z,16.3
2023-02-08T11:28:16.000Z,16.3
2023-02-08T11:29:32.000Z,16.2
2023-02-08T11:30:48.000Z,15.3
2023-02-08T11:32:04.000Z,14.6
2023-02-08T11:33:20.000Z,14.4
2023-02-08T11:34:37.000Z,14
2023-02-08T11:35:53.000Z,13.4
2023-02-08T11:37:09.000Z,12.9
2023-02-08T11:38:25.000Z,12.3
2023-02-08T11:39:41.000Z,11.8
2023-02-08T11:40:57.000Z,12.6
2023-02-08T11:42:13.000Z,13.4
2023-02-08T11:43:29.000Z,13.1
2023-02-08T11:44:45.000Z,13.4
2023-02-08T11:46:01.000Z,14
2023-02-08T11:47:18.000Z,14.6
2023-02-08T11:48:34.000Z,15.1
2023-02-08T11:49:49.000Z,15.4
2023-02-08T11:51:04.000Z,15.7
2023-02-08T11:52:19.000Z,15.8
2023-02-08T11:53:35.000Z,16.1
2023-02-08T11:54:51.000Z,16
2023-02-08T11:56:07.000Z,15.9
2023-02-08T11:57:23.000Z,15.3
2023-02-08T11:58:39.000Z,15.1
2023-02-08T11:59:55.000Z,15.3
2023-02-08T12:01:12.000Z,15.6
2023-02-08T12:02:28.000Z,16.2
2023-02-08T12:03:44.000Z,15.2
2023-02-08T12:05:00.000Z,14.1
2023-02-08T12:06:16.000Z,14.2
2023-02-08T12:07:33.000Z,14.6
2023-02-08T12:08:49.000Z,15.3
2023-02-08T12:10:04.000Z,16
2023-02-08T12:11:20.000Z,16.5
2023-02-08T12:12:36.000Z,16.2
2023-02-08T12:13:53.000Z,15.2
2023-02-08T12:15:09.000Z,14
2023-02-08T12:16:25.000Z,13.3
2023-02-08T12:17:41.000Z,13.3
2023-02-08T12:18:56.000Z,13.1
2023-02-08T12:20:12.000Z,12.7
2023-02-08T12:21:27.000Z,12.6
2023-02-08T12:22:42.000Z,13.1
2023-02-08T12:23:58.000Z,13.7
2023-02-08T12:25:14.000Z,13.8
2023-02-08T12:26:31.000Z,14.1
2023-02-08T12:27:47.000Z,15.1
2023-02-08T12:29:03.000Z,16
2023-02-08T12:30:19.000Z,16.9
2023-02-08T12:31:35.000Z,17.5
2023-02-08T12:32:51.000Z,17.8
2023-02-08T12:34:08.000Z,17.9
2023-02-08T12:35:24.000Z,17.9
2023-02-08T12:36:40.000Z,17.9
2023-02-08T12:37:56.000Z,17.9
2023-02-08T12:39:12.000Z,18.3
2023-02-08T12:40:28.000Z,18
2023-02-08T12:41:44.000Z,18
2023-02-08T12:43:00.000Z,18
2023-02-08T12:44:16.000Z,17.8
2023-02-08T12:45:32.000Z,18
2023-02-08T12:46:49.000Z,18.1
2023-02-08T12:48:04.000Z,18.6
2023-02-08T12:49:19.000Z,18.8
2023-02-08T12:50:35.000Z,18.8
2023-02-08T12:51:51.000Z,18.6
2023-02-08T12:53:08.000Z,18.3
2023-02-08T12:54:24.000Z,16.6
2023-02-08T12:55:40.000Z,16.3
2023-02-08T12:56:56.000Z,16.7
2023-02-08T12:58:12.000Z,17.3
2023-02-08T12:59:29.000Z,17.3
2023-02-08T13:00:45.000Z,17.3
2023-02-08T13:02:01.000Z,17.5
2023-02-08T13:03:17.000Z,17.7
2023-02-08T13:04:33.000Z,18.1
2023-02-08T13:05:48.000Z,18
2023-02-08T13:07:05.000Z,17.2
2023-02-08T13:08:21.000Z,16.5
2023-02-08T13:09:37.000Z,17
2023-02-08T13:10:53.000Z,17.4
2023-02-08T13:12:09.000Z,17.7
2023-02-08T13:13:26.000Z,17.9
2023-02-08T13:14:41.000Z,18
2023-02-08T13:15:56.000Z,17.9
2023-02-08T13:17:11.000Z,18
2023-02-08T13:18:26.000Z,18.2
2023-02-08T13:19:43.000Z,17.8
2023-02-08T13:20:59.000Z,18.3
2023-02-08T13:22:15.000Z,18.9
2023-02-08T13:23:31.000Z,19.1
2023-02-08T13:24:47.000Z,18.9
2023-02-08T13:26:04.000Z,18.6
2023-02-08T13:27:20.000Z,18.1
2023-02-08T13:28:36.000Z,17.9
2023-02-08T13:29:52.000Z,17.7
2023-02-08T13:31:08.000Z,17.6
2023-02-08T13:32:25.000Z,17.8
2023-02-08T13:33:41.000Z,17.7
2023-02-08T13:34:56.000Z,17.5
2023-02-08T13:36:12.000Z,17.6
2023-02-08T13:37:28.000Z,17.8
2023-02-08T13:38:44.000Z,17.7
2023-02-08T13:40:01.000Z,17.9
2023-02-08T13:41:17.000Z,17.9
2023-02-08T13:42:33.000Z,17.8
2023-02-08T13:43:48.000Z,17.7
2023-02-08T13:45:03.000Z,17.6
2023-02-08T13:46:19.000Z,17.4
2023-02-08T13:47:34.000Z,17.2
2023-02-08T13:48:49.000Z,17.2
2023-02-08T13:50:04.000Z,17.4
2023-02-08T13:51:20.000Z,17.7
2023-02-08T13:52:37.000Z,17.7
2023-02-08T13:53:53.000Z,17.6
2023-02-08T13:55:09.000Z,16.3
2023-02-08T13:56:25.000Z,16.4
2023-02-08T13:57:41.000Z,16.9
2023-02-08T13:58:58.000Z,17.4
2023-02-08T14:00:14.000Z,17.3
2023-02-08T14:01:30.000Z,17.3
2023-02-08T14:02:46.000Z,17.5
2023-02-08T14:04:02.000Z,17.6
2023-02-08T14:05:19.000Z,17.9
2023-02-08T14:06:34.000Z,16.5
2023-02-08T14:07:50.000Z,16.3
2023-02-08T14:09:06.000Z,16.1
2023-02-08T14:10:22.000Z,16.1
2023-02-08T14:11:38.000Z,16.3
2023-02-08T14:12:55.000Z,16.2
2023-02-08T14:14:11.000Z,16.7
2023-02-08T14:15:26.000Z,17
2023-02-08T14:16:41.000Z,16.7
2023-02-08T14:17:56.000Z,16.5
2023-02-08T14:19:12.000Z,16.5
2023-02-08T14:20:28.000Z,16.5
2023-02-08T14:21:44.000Z,16.6
2023-02-08T14:23:00.000Z,16.7
2023-02-08T14:24:16.000Z,17
2023-02-08T14:25:33.000Z,16.7
2023-02-08T14:26:49.000Z,16.1
2023-02-08T14:28:05.000Z,15.9
2023-02-08T14:29:21.000Z,15.9
2023-02-08T14:30:37.000Z,15.8
2023-02-08T14:31:54.000Z,15.8
2023-02-08T14:33:10.000Z,15.4
2023-02-08T14:34:26.000Z,14.3
2023-02-08T14:35:41.000Z,13.5
2023-02-08T14:36:57.000Z,13.2
2023-02-08T14:38:14.000Z,13.5
2023-02-08T14:39:30.000Z,13.6
2023-02-08T14:40:46.000Z,14
2023-02-08T14:42:02.000Z,13.7
2023-02-08T14:43:18.000Z,13.3
2023-02-08T14:44:34.000Z,13.4
2023-02-08T14:45:49.000Z,13.7
2023-02-08T14:47:05.000Z,14
2023-02-08T14:48:21.000Z,14.2
2023-02-08T14:49:37.000Z,14.3
2023-02-08T14:50:53.000Z,14.6
2023-02-08T14:52:10.000Z,14.9
2023-02-08T14:53:26.000Z,14.9
2023-02-08T14:54:42.000Z,15.1
2023-02-08T14:55:58.000Z,15.2
2023-02-08T14:57:14.000Z,15.3
2023-02-08T14:58:31.000Z,15.4
2023-02-08T14:59:47.000Z,15
2023-02-08T15:01:03.000Z,14.7
2023-02-08T15:02:18.000Z,14.9
2023-02-08T15:03:34.000Z,14.3
2023-02-08T15:04:51.000Z,14.1
2023-02-08T15:06:07.000Z,14.5
2023-02-08T15:07:23.000Z,14.4
2023-02-08T15:08:39.000Z,13.8
2023-02-08T15:09:55.000Z,13.1
2023-02-08T15:11:11.000Z,12.5
2023-02-08T15:12:27.000Z,12.3
2023-02-08T15:13:42.000Z,11.7
2023-02-08T15:14:57.000Z,11.3
2023-02-08T15:16:12.000Z,11.4
2023-02-08T15:17:28.000Z,12
2023-02-08T15:18:44.000Z,12.2
2023-02-08T15:20:00.000Z,12.6
2023-02-08T15:21:16.000Z,13.1
2023-02-08T15:22:32.000Z,13.1
2023-02-08T15:23:49.000Z,13
2023-02-08T15:25:05.000Z,12.3
2023-02-08T15:26:20.000Z,12.1
2023-02-08T15:27:36.000Z,12.4
2023-02-08T15:28:52.000Z,12.5
2023-02-08T15:30:08.000Z,12.2
2023-02-08T15:31:25.000Z,12.2
2023-02-08T15:32:41.000Z,11.7
2023-02-08T15:33:57.000Z,11.2
2023-02-08T15:35:13.000Z,11.3
2023-02-08T15:36:29.000Z,11.4
2023-02-08T15:37:46.000Z,11.6
2023-02-08T15:39:02.000Z,11.6
2023-02-08T15:40:18.000Z,11.6
2023-02-08T15:41:34.000Z,12.1
2023-02-08T15:42:49.000Z,12.3
2023-02-08T15:44:05.000Z,12.6
2023-02-08T15:46:36.000Z,12.5
2023-02-08T15:47:51.000Z,12.8
2023-02-08T15:49:06.000Z,13
2023-02-08T15:50:23.000Z,13.1
2023-02-08T15:51:39.000Z,12.9
2023-02-08T15:52:55.000Z,12.1
2023-02-08T15:54:11.000Z,12.1
2023-02-08T15:55:27.000Z,12.3
2023-02-08T15:56:44.000Z,12.3
2023-02-08T15:58:00.000Z,12.4
2023-02-08T15:59:16.000Z,12.4
2023-02-08T16:00:32.000Z,12
2023-02-08T16:01:48.000Z,11.6
2023-02-08T16:03:04.000Z,11.2
2023-02-08T16:04:21.000Z,10.7
2023-02-08T16:05:36.000Z,10.7
2023-02-08T16:06:52.000Z,10.8
2023-02-08T16:08:08.000Z,10.6
2023-02-08T16:09:24.000Z,10.3
2023-02-08T16:10:41.000Z,10.4
2023-02-08T16:11:57.000Z,10.3
2023-02-08T16:13:13.000Z,10
2023-02-08T16:14:29.000Z,9.8
2023-02-08T16:15:44.000Z,9.6
2023-02-08T16:17:00.000Z,9.6
2023-02-08T16:18:15.000Z,9.5
2023-02-08T16:19:30.000Z,9.4
2023-02-08T16:20:46.000Z,9.4
2023-02-08T16:22:02.000Z,9.2
2023-02-08T16:23:19.000Z,9.2
2023-02-08T16:24:35.000Z,9.2
2023-02-08T16:25:51.000Z,9.2
2023-02-08T16:27:07.000Z,9.1
2023-02-08T16:28:23.000Z,9.1
2023-02-08T16:29:40.000Z,9
2023-02-08T16:30:56.000Z,9
2023-02-08T16:32:12.000Z,8.9
2023-02-08T16:33:28.000Z,8.9
2023-02-08T16:34:44.000Z,8.9
2023-02-08T16:36:00.000Z,8.8
2023-02-08T16:37:16.000Z,8.8
2023-02-08T16:38:32.000Z,8.7
2023-02-08T16:39:48.000Z,8.6
2023-02-08T16:41:04.000Z,8.5
2023-02-08T16:42:20.000Z,8.4
2023-02-08T16:43:37.000Z,8.2
2023-02-08T16:44:52.000Z,8.1
2023-02-08T16:46:07.000Z,8
2023-02-08T16:47:22.000Z,7.9
2023-02-08T16:48:38.000Z,7.8
2023-02-08T16:49:54.000Z,7.7
2023-02-08T16:51:10.000Z,7.5
2023-02-08T16:52:26.000Z,7.4
2023-02-08T16:53:42.000Z,7.4
2023-02-08T16:54:58.000Z,7.3
2023-02-08T16:56:15.000Z,7.3
2023-02-08T16:57:31.000Z,7.3
2023-02-08T16:58:47.000Z,7.2
2023-02-08T17:00:03.000Z,7.1
2023-02-08T17:01:19.000Z,7.1
2023-02-08T17:02:36.000Z,7
2023-02-08T17:03:52.000Z,7.1
2023-02-08T17:05:07.000Z,7
2023-02-08T17:06:23.000Z,7
2023-02-08T17:07:39.000Z,7.1
2023-02-08T17:08:56.000Z,7
2023-02-08T17:10:12.000Z,7
2023-02-08T17:11:28.000Z,6.9
2023-02-08T17:12:44.000Z,6.9
2023-02-08T17:13:59.000Z,6.8
2023-02-08T17:15:15.000Z,6.8
2023-02-08T17:16:31.000Z,6.8